Bluff Estates, South Carolina
Current Conditions -  °F | °C
As of 8:53 PM on Sunday 25 Jan 2015 (Local Time) from KCUB Reporting Station
Clear Clear  
Wind Chill: 45°   Ceiling: Unl
Heat Index: 45°   Visibility: 10mi
Dew Point: 34°   Wind: 0mph
Humidity: 65%   Direction: NA
Pressure: 29.84"   Gusts: NA
Location:  33.9488°N, 80.9462°W
Report Text: KCUB 260153Z AUTO 00000KT 10SM CLR 07/01 A2984 RMK AO2 SLP106 T00720011
Loading
Personal Weather Stations






























Interactive Weather Map New forecast layout! Learn more

10-Day Weather Forecast

Advertisements
Track Severe Weather on mobile